Aktjubinsk, Kazakhstan
Current Conditions -  °F | °C
As of 11:30 PM on Thursday 29 Jan 2015 (Local Time) from UATT Reporting Station
Clear Clear  
Wind Chill: -19°   Ceiling: Unl
Heat Index: -8°   Visibility: 6mi
Dew Point: -15°   Wind: 4mph
Humidity: 71%   Direction: 200°SSW
Pressure: 30.24"   Gusts: NA
Location:  50.28°N, 57.15°E
Report Text: UATT 291830Z 20002MPS CAVOK M22/M26 Q1024 R13/820255 NOSIG RMKQFE748/0998
Loading
Personal Weather Stations






























Interactive Weather Map New forecast layout! Learn more

10-Day Weather Forecast

Advertisements
Track Severe Weather on mobile